createdAt,value
2022-10-05T00:00:37.461Z,51.216190
2022-10-05T00:01:37.480Z,51.216064
2022-10-05T00:02:37.443Z,51.216038
2022-10-05T00:03:37.429Z,51.215954
2022-10-05T00:04:37.458Z,51.216125
2022-10-05T00:05:37.410Z,51.215927
2022-10-05T00:06:37.417Z,51.216095
2022-10-05T00:07:37.406Z,51.216095
2022-10-05T00:08:38.392Z,51.216064
2022-10-05T00:09:37.382Z,51.216049
2022-10-05T00:10:37.386Z,51.215946
2022-10-05T00:11:37.375Z,51.216053
2022-10-05T00:12:37.363Z,51.216049
2022-10-05T00:13:38.359Z,51.215958
2022-10-05T00:14:37.353Z,51.216148
2022-10-05T00:15:37.358Z,51.216118
2022-10-05T00:16:37.429Z,51.216114
2022-10-05T00:17:37.650Z,51.216141
2022-10-05T00:18:37.327Z,51.216080
2022-10-05T00:19:37.335Z,51.216122
2022-10-05T00:20:37.329Z,51.216080
2022-10-05T00:21:37.302Z,51.216042
2022-10-05T00:22:37.310Z,51.215664
2022-10-05T00:23:37.294Z,51.215420
2022-10-05T00:24:37.300Z,51.215500
2022-10-05T00:25:37.298Z,51.215584
2022-10-05T00:26:37.283Z,51.215294
2022-10-05T00:27:37.279Z,51.215679
2022-10-05T00:28:37.324Z,51.216061
2022-10-05T00:29:37.255Z,51.216022
2022-10-05T00:30:37.251Z,51.216042
2022-10-05T00:31:37.323Z,51.216091
2022-10-05T00:32:37.242Z,51.216053
2022-10-05T00:33:37.226Z,51.216244
2022-10-05T00:34:37.231Z,51.216160
2022-10-05T00:35:37.230Z,51.215916
2022-10-05T00:36:37.218Z,51.215950
2022-10-05T00:37:37.218Z,51.216038
2022-10-05T00:38:37.192Z,51.216347
2022-10-05T00:39:37.191Z,51.216286
2022-10-05T00:40:37.310Z,51.216087
2022-10-05T00:41:37.168Z,51.216091
2022-10-05T00:42:37.191Z,51.215961
2022-10-05T00:43:37.159Z,51.215946
2022-10-05T00:44:37.150Z,51.215958
2022-10-05T00:45:37.178Z,51.215996
2022-10-05T00:46:37.143Z,51.216248
2022-10-05T00:47:37.137Z,51.216206
2022-10-05T00:48:37.127Z,51.216232
2022-10-05T00:49:37.122Z,51.216137
2022-10-05T00:50:37.106Z,51.216175
2022-10-05T00:51:37.103Z,51.216087
2022-10-05T00:52:37.133Z,51.215988
2022-10-05T00:53:37.113Z,51.216076
2022-10-05T00:54:37.083Z,51.215965
2022-10-05T00:55:37.085Z,51.216122
2022-10-05T00:56:37.067Z,51.216038
2022-10-05T00:57:37.066Z,51.216019
2022-10-05T00:58:37.058Z,51.215958
2022-10-05T00:59:37.057Z,51.216015
2022-10-05T01:00:37.057Z,51.215874
2022-10-05T01:01:37.112Z,51.216011
2022-10-05T01:02:37.319Z,51.216164
2022-10-05T01:03:38.025Z,51.216164
2022-10-05T01:04:38.021Z,51.216221
2022-10-05T01:05:37.002Z,51.216206
2022-10-05T01:06:37.001Z,51.216148
2022-10-05T01:07:37.009Z,51.216068
2022-10-05T01:08:36.989Z,51.216309
2022-10-05T01:09:36.992Z,51.216221
2022-10-05T01:10:36.977Z,51.216412
2022-10-05T01:11:36.968Z,51.216213
2022-10-05T01:12:36.946Z,51.216106
2022-10-05T01:13:36.965Z,51.216198
2022-10-05T01:14:36.950Z,51.216122
2022-10-05T01:15:36.929Z,51.216022
2022-10-05T01:16:36.981Z,51.216137
2022-10-05T01:17:36.931Z,51.216034
2022-10-05T01:18:36.921Z,51.216114
2022-10-05T01:19:36.921Z,51.216084
2022-10-05T01:20:36.913Z,51.216152
2022-10-05T01:21:36.898Z,51.216045
2022-10-05T01:22:36.901Z,51.216038
2022-10-05T01:23:36.901Z,51.216026
2022-10-05T01:24:36.873Z,51.216045
2022-10-05T01:25:36.869Z,51.216194
2022-10-05T01:26:36.865Z,51.216263
2022-10-05T01:27:36.865Z,51.215836
2022-10-05T01:28:36.947Z,51.216011
2022-10-05T01:29:36.850Z,51.216133
2022-10-05T01:30:36.837Z,51.215855
2022-10-05T01:31:36.949Z,51.216042
2022-10-05T01:32:36.826Z,51.215931
2022-10-05T01:33:36.825Z,51.216236
2022-10-05T01:34:36.812Z,51.216209
2022-10-05T01:35:36.810Z,51.216171
2022-10-05T01:36:36.801Z,51.216148
2022-10-05T01:37:36.794Z,51.215996
2022-10-05T01:38:36.814Z,51.216084
2022-10-05T01:39:36.785Z,51.216015
2022-10-05T01:40:36.777Z,51.216015
2022-10-05T01:41:36.778Z,51.216057
2022-10-05T01:42:37.586Z,51.216076
2022-10-05T01:43:36.765Z,51.216042
2022-10-05T01:44:36.802Z,51.216042
2022-10-05T01:45:36.796Z,51.216057
2022-10-05T01:46:36.735Z,51.216080
2022-10-05T01:47:36.725Z,51.215916
2022-10-05T01:48:36.720Z,51.216034
2022-10-05T01:49:36.731Z,51.215889
2022-10-05T01:50:36.706Z,51.216003
2022-10-05T01:51:36.725Z,51.215851
2022-10-05T01:52:36.701Z,51.215858
2022-10-05T01:53:36.694Z,51.215878
2022-10-05T01:54:36.689Z,51.215862
2022-10-05T01:55:36.686Z,51.216019
2022-10-05T01:56:36.669Z,51.216091
2022-10-05T01:57:36.660Z,51.215939
2022-10-05T01:58:36.652Z,51.215801
2022-10-05T01:59:36.662Z,51.216045
2022-10-05T02:00:36.636Z,51.216248
2022-10-05T02:01:36.732Z,51.216324
2022-10-05T02:02:36.685Z,51.216248
2022-10-05T02:03:36.624Z,51.216171
2022-10-05T02:05:00.970Z,51.215809
2022-10-05T02:05:38.609Z,51.216026
2022-10-05T02:06:36.601Z,51.216038
2022-10-05T02:07:36.596Z,51.216022
2022-10-05T02:08:36.588Z,51.216022
2022-10-05T02:09:36.601Z,51.216022
2022-10-05T02:10:36.572Z,51.216160
2022-10-05T02:11:36.572Z,51.216259
2022-10-05T02:12:36.552Z,51.216255
2022-10-05T02:13:36.550Z,51.216309
2022-10-05T02:14:36.548Z,51.216316
2022-10-05T02:15:36.596Z,51.216282
2022-10-05T02:16:36.532Z,51.216309
2022-10-05T02:17:36.530Z,51.216328
2022-10-05T02:18:36.520Z,51.216373
2022-10-05T02:19:36.527Z,51.216297
2022-10-05T02:20:36.513Z,51.216209
2022-10-05T02:21:36.537Z,51.216064
2022-10-05T02:22:36.496Z,51.216030
2022-10-05T02:23:36.484Z,51.216187
2022-10-05T02:24:36.488Z,51.216167
2022-10-05T02:25:36.492Z,51.215942
2022-10-05T02:26:36.465Z,51.215969
2022-10-05T02:27:36.453Z,51.215969
2022-10-05T02:28:36.488Z,51.216019
2022-10-05T02:29:36.443Z,51.215950
2022-10-05T02:30:36.443Z,51.216042
2022-10-05T02:31:36.466Z,51.216164
2022-10-05T02:32:36.424Z,51.216183
2022-10-05T02:33:36.412Z,51.216183
2022-10-05T02:34:36.413Z,51.216194
2022-10-05T02:35:36.416Z,51.216881
2022-10-05T02:36:36.393Z,51.216732
2022-10-05T02:37:36.386Z,51.216232
2022-10-05T02:38:36.388Z,51.216118
2022-10-05T02:39:36.381Z,51.216122
2022-10-05T02:40:36.371Z,51.216244
2022-10-05T02:41:36.390Z,51.216156
2022-10-05T02:42:36.356Z,51.216007
2022-10-05T02:43:36.348Z,51.216133
2022-10-05T02:44:36.343Z,51.216217
2022-10-05T02:45:36.368Z,51.216190
2022-10-05T02:46:36.339Z,51.216225
2022-10-05T02:47:36.316Z,51.216228
2022-10-05T02:48:36.312Z,51.216171
2022-10-05T02:49:36.310Z,51.216164
2022-10-05T02:50:36.316Z,51.216190
2022-10-05T02:51:36.297Z,51.216190
2022-10-05T02:52:36.284Z,51.216148
2022-10-05T02:53:36.283Z,51.216122
2022-10-05T02:54:36.276Z,51.216164
2022-10-05T02:55:36.272Z,51.216213
2022-10-05T02:56:36.272Z,51.216152
2022-10-05T02:57:36.259Z,51.216015
2022-10-05T02:58:36.248Z,51.216091
2022-10-05T02:59:36.237Z,51.216137
2022-10-05T03:00:36.251Z,51.216110
2022-10-05T03:01:36.354Z,51.216148
2022-10-05T03:02:36.220Z,51.216103
2022-10-05T03:03:36.207Z,51.216156
2022-10-05T03:04:36.207Z,51.216084
2022-10-05T03:05:36.206Z,51.216103
2022-10-05T03:06:36.203Z,51.216095
2022-10-05T03:07:36.192Z,51.216072
2022-10-05T03:08:36.184Z,51.216091
2022-10-05T03:09:36.180Z,51.216133
2022-10-05T03:10:36.175Z,51.216110
2022-10-05T03:11:36.165Z,51.216087
2022-10-05T03:12:36.159Z,51.216049
2022-10-05T03:13:36.147Z,51.215912
2022-10-05T03:14:36.143Z,51.216061
2022-10-05T03:15:36.123Z,51.216080
2022-10-05T03:16:36.135Z,51.216091
2022-10-05T03:17:36.119Z,51.216179
2022-10-05T03:18:36.108Z,51.216125
2022-10-05T03:19:36.100Z,51.216118
2022-10-05T03:20:36.095Z,51.216175
2022-10-05T03:21:36.111Z,51.216164
2022-10-05T03:22:36.079Z,51.216106
2022-10-05T03:23:36.107Z,51.216125
2022-10-05T03:24:36.076Z,51.216171
2022-10-05T03:25:36.071Z,51.216148
2022-10-05T03:26:36.067Z,51.216141
2022-10-05T03:27:36.059Z,51.216194
2022-10-05T03:28:36.141Z,51.216122
2022-10-05T03:29:36.035Z,51.216164
2022-10-05T03:30:36.031Z,51.216160
2022-10-05T03:31:36.060Z,51.216217
2022-10-05T03:32:36.010Z,51.216255
2022-10-05T03:33:37.011Z,51.216118
2022-10-05T03:34:35.999Z,51.216160
2022-10-05T03:35:35.999Z,51.216167
2022-10-05T03:36:35.991Z,51.216103
2022-10-05T03:37:35.988Z,51.216167
2022-10-05T03:38:35.975Z,51.216160
2022-10-05T03:39:35.977Z,51.216064
2022-10-05T03:40:35.962Z,51.216049
2022-10-05T03:41:35.955Z,51.216045
2022-10-05T03:42:35.955Z,51.216080
2022-10-05T03:43:35.939Z,51.216122
2022-10-05T03:44:35.935Z,51.216110
2022-10-05T03:45:35.952Z,51.216137
2022-10-05T03:46:36.014Z,51.216156
2022-10-05T03:47:35.919Z,51.216187
2022-10-05T03:48:35.908Z,51.216114
2022-10-05T03:49:35.903Z,51.216118
2022-10-05T03:50:35.887Z,51.216209
2022-10-05T03:51:35.902Z,51.216137
2022-10-05T03:52:35.886Z,51.216061
2022-10-05T03:53:35.873Z,51.216057
2022-10-05T03:54:35.855Z,51.216076
2022-10-05T03:55:35.864Z,51.216118
2022-10-05T03:56:35.859Z,51.216145
2022-10-05T03:57:35.847Z,51.216141
2022-10-05T03:58:35.850Z,51.216148
2022-10-05T03:59:35.831Z,51.216110
2022-10-05T04:00:35.841Z,51.216125
2022-10-05T04:01:35.899Z,51.216145
2022-10-05T04:02:35.861Z,51.216145
2022-10-05T04:03:35.820Z,51.216148
2022-10-05T04:04:35.808Z,51.216011
2022-10-05T04:05:35.792Z,51.216053
2022-10-05T04:06:35.795Z,51.215942
2022-10-05T04:07:35.799Z,51.216042
2022-10-05T04:08:35.807Z,51.216030
2022-10-05T04:09:35.771Z,51.216022
2022-10-05T04:10:35.763Z,51.216072
2022-10-05T04:11:35.756Z,51.216038
2022-10-05T04:12:35.748Z,51.216015
2022-10-05T04:13:35.755Z,51.216026
2022-10-05T04:14:35.742Z,51.215984
2022-10-05T04:15:35.765Z,51.215992
2022-10-05T04:16:35.716Z,51.216049
2022-10-05T04:17:35.707Z,51.216076
2022-10-05T04:18:35.715Z,51.216064
2022-10-05T04:19:36.695Z,51.216133
2022-10-05T04:20:35.711Z,51.216110
2022-10-05T04:21:35.688Z,51.216129
2022-10-05T04:22:35.679Z,51.216053
2022-10-05T04:23:35.692Z,51.216011
2022-10-05T04:24:35.663Z,51.216068
2022-10-05T04:25:35.654Z,51.216125
2022-10-05T04:26:35.646Z,51.216114
2022-10-05T04:27:35.643Z,51.216076
2022-10-05T04:28:35.709Z,51.216141
2022-10-05T04:29:35.627Z,51.216099
2022-10-05T04:30:35.627Z,51.215939
2022-10-05T04:31:35.699Z,51.215923
2022-10-05T04:32:35.612Z,51.216030
2022-10-05T04:33:35.607Z,51.216019
2022-10-05T04:34:35.606Z,51.216095
2022-10-05T04:35:35.588Z,51.216175
2022-10-05T04:36:35.583Z,51.216190
2022-10-05T04:37:35.587Z,51.216053
2022-10-05T04:38:35.554Z,51.216019
2022-10-05T04:39:35.575Z,51.215973
2022-10-05T04:40:35.562Z,51.215923
2022-10-05T04:41:35.543Z,51.216019
2022-10-05T04:42:35.543Z,51.215981
2022-10-05T04:43:35.539Z,51.216064
2022-10-05T04:44:35.543Z,51.216091
2022-10-05T04:45:35.576Z,51.216106
2022-10-05T04:46:35.585Z,51.216072
2022-10-05T04:47:35.514Z,51.215916
2022-10-05T04:48:35.502Z,51.215935
2022-10-05T04:49:35.518Z,51.216015
2022-10-05T04:50:35.486Z,51.215981
2022-10-05T04:51:35.482Z,51.215916
2022-10-05T04:52:35.478Z,51.216087
2022-10-05T04:53:35.464Z,51.216095
2022-10-05T04:54:35.486Z,51.216011
2022-10-05T04:55:35.457Z,51.215939
2022-10-05T04:56:35.446Z,51.215893
2022-10-05T04:57:35.462Z,51.215866
2022-10-05T04:58:40.037Z,51.215900
2022-10-05T04:59:37.418Z,51.216019
2022-10-05T05:00:35.466Z,51.215954
2022-10-05T05:01:35.406Z,51.215965
2022-10-05T05:02:35.398Z,51.215961
2022-10-05T05:03:35.435Z,51.216084
2022-10-05T05:04:35.383Z,51.216080
2022-10-05T05:05:35.383Z,51.216156
2022-10-05T05:06:35.371Z,51.216187
2022-10-05T05:07:35.365Z,51.216274
2022-10-05T05:08:35.373Z,51.216228
2022-10-05T05:09:35.351Z,51.216209
2022-10-05T05:10:35.386Z,51.216125
2022-10-05T05:11:35.330Z,51.216003
2022-10-05T05:12:35.330Z,51.215969
2022-10-05T05:13:35.335Z,51.216103
2022-10-05T05:14:35.315Z,51.216038
2022-10-05T05:15:35.326Z,51.216061
2022-10-05T05:16:35.361Z,51.216072
2022-10-05T05:17:35.297Z,51.216034
2022-10-05T05:18:35.289Z,51.216034
2022-10-05T05:19:35.282Z,51.216103
2022-10-05T05:20:35.278Z,51.216011
2022-10-05T05:21:35.279Z,51.216076
2022-10-05T05:22:35.265Z,51.216068
2022-10-05T05:23:35.274Z,51.216064
2022-10-05T05:24:35.258Z,51.216125
2022-10-05T05:25:35.245Z,51.216022
2022-10-05T05:26:38.910Z,51.216076
2022-10-05T05:27:36.226Z,51.216045
2022-10-05T05:28:35.298Z,51.216038
2022-10-05T05:29:35.214Z,51.216137
2022-10-05T05:30:35.239Z,51.216076
2022-10-05T05:31:35.237Z,51.216068
2022-10-05T05:32:35.206Z,51.216007
2022-10-05T05:33:35.190Z,51.216129
2022-10-05T05:34:35.182Z,51.216160
2022-10-05T05:35:35.178Z,51.216187
2022-10-05T05:36:35.166Z,51.216061
2022-10-05T05:37:35.163Z,51.216095
2022-10-05T05:38:35.180Z,51.216084
2022-10-05T05:39:35.145Z,51.216141
2022-10-05T05:40:35.148Z,51.216091
2022-10-05T05:41:35.134Z,51.216110
2022-10-05T05:42:35.113Z,51.216053
2022-10-05T05:43:35.126Z,51.216003
2022-10-05T05:44:38.553Z,51.215813
2022-10-05T05:45:36.095Z,51.215889
2022-10-05T05:46:58.761Z,51.215919
2022-10-05T05:47:37.159Z,51.215931
2022-10-05T05:48:35.103Z,51.216061
2022-10-05T05:49:35.074Z,51.216148
2022-10-05T05:50:35.062Z,51.216213
2022-10-05T05:51:35.053Z,51.215969
2022-10-05T05:52:35.056Z,51.216156
2022-10-05T05:53:35.051Z,51.216106
2022-10-05T05:54:35.030Z,51.216087
2022-10-05T05:55:35.032Z,51.216331
2022-10-05T05:56:35.029Z,51.216152
2022-10-05T05:57:35.013Z,51.216183
2022-10-05T05:58:35.013Z,51.216202
2022-10-05T05:59:35.030Z,51.216148
2022-10-05T06:00:35.015Z,51.216183
2022-10-05T06:01:34.984Z,51.216194
2022-10-05T06:02:35.094Z,51.216179
2022-10-05T06:03:34.975Z,51.216183
2022-10-05T06:04:34.975Z,51.216164
2022-10-05T06:05:34.961Z,51.216125
2022-10-05T06:06:34.956Z,51.216137
2022-10-05T06:07:34.946Z,51.216152
2022-10-05T06:08:34.942Z,51.216187
2022-10-05T06:09:34.966Z,51.216095
2022-10-05T06:10:34.972Z,51.216084
2022-10-05T06:11:34.921Z,51.216118
2022-10-05T06:12:34.950Z,51.216171
2022-10-05T06:13:34.911Z,51.216164
2022-10-05T06:14:34.925Z,51.216099
2022-10-05T06:15:35.287Z,51.216072
2022-10-05T06:16:34.949Z,51.216099
2022-10-05T06:17:34.869Z,51.216095
2022-10-05T06:18:34.865Z,51.216137
2022-10-05T06:19:34.861Z,51.216175
2022-10-05T06:20:34.876Z,51.216114
2022-10-05T06:21:34.849Z,51.216125
2022-10-05T06:22:34.841Z,51.216160
2022-10-05T06:23:34.825Z,51.216187
2022-10-05T06:24:35.832Z,51.216175
2022-10-05T06:25:34.829Z,51.216042
2022-10-05T06:26:34.823Z,51.216202
2022-10-05T06:27:34.808Z,51.216148
2022-10-05T06:28:34.939Z,51.216175
2022-10-05T06:29:34.836Z,51.216320
2022-10-05T06:30:34.817Z,51.216228
2022-10-05T06:31:34.840Z,51.216175
2022-10-05T06:32:34.924Z,51.216183
2022-10-05T06:33:34.763Z,51.216019
2022-10-05T06:34:34.765Z,51.216106
2022-10-05T06:35:34.790Z,51.215984
2022-10-05T06:36:34.743Z,51.216045
2022-10-05T06:37:35.749Z,51.216244
2022-10-05T06:38:34.734Z,51.216179
2022-10-05T06:39:34.732Z,51.216091
2022-10-05T06:40:34.725Z,51.216103
2022-10-05T06:41:34.747Z,51.216156
2022-10-05T06:42:34.708Z,51.216309
2022-10-05T06:43:34.702Z,51.216194
2022-10-05T06:44:34.696Z,51.216179
2022-10-05T06:45:34.733Z,51.216106
2022-10-05T06:46:34.702Z,51.216110
2022-10-05T06:47:34.664Z,51.216007
2022-10-05T06:48:34.713Z,51.216087
2022-10-05T06:49:34.665Z,51.215954
2022-10-05T06:50:34.653Z,51.216072
2022-10-05T06:51:34.673Z,51.216152
2022-10-05T06:52:34.642Z,51.216148
2022-10-05T06:53:34.637Z,51.216137
2022-10-05T06:54:34.628Z,51.216049
2022-10-05T06:55:34.619Z,51.216064
2022-10-05T06:56:34.617Z,51.216011
2022-10-05T06:57:34.612Z,51.216087
2022-10-05T06:58:34.604Z,51.216156
2022-10-05T06:59:34.593Z,51.216110
2022-10-05T07:00:34.589Z,51.216019
2022-10-05T07:01:34.631Z,51.216053
2022-10-05T07:02:34.758Z,51.216095
2022-10-05T07:03:34.572Z,51.216049
2022-10-05T07:04:36.961Z,51.216053
2022-10-05T07:05:35.568Z,51.216007
2022-10-05T07:06:34.549Z,51.216076
2022-10-05T07:07:34.552Z,51.216179
2022-10-05T07:08:34.528Z,51.216125
2022-10-05T07:09:34.530Z,51.216137
2022-10-05T07:10:34.513Z,51.216099
2022-10-05T07:11:34.516Z,51.216213
2022-10-05T07:12:34.513Z,51.215996
2022-10-05T07:13:34.497Z,51.215965
2022-10-05T07:14:34.493Z,51.216000
2022-10-05T07:15:34.488Z,51.216217
2022-10-05T07:16:34.573Z,51.216106
2022-10-05T07:17:34.552Z,51.216080
2022-10-05T07:18:34.473Z,51.216091
2022-10-05T07:19:34.465Z,51.216141
2022-10-05T07:20:34.457Z,51.216129
2022-10-05T07:21:34.446Z,51.216148
2022-10-05T07:22:34.685Z,51.216152
2022-10-05T07:23:34.503Z,51.216221
2022-10-05T07:24:34.436Z,51.216103
2022-10-05T07:25:34.427Z,51.216248
2022-10-05T07:26:34.420Z,51.216202
2022-10-05T07:27:34.416Z,51.216175
2022-10-05T07:28:34.481Z,51.216217
2022-10-05T07:29:34.400Z,51.216187
2022-10-05T07:30:34.422Z,51.216148
2022-10-05T07:31:34.381Z,51.216202
2022-10-05T07:32:34.380Z,51.216091
2022-10-05T07:33:34.381Z,51.216064
2022-10-05T07:34:34.364Z,51.216091
2022-10-05T07:35:34.356Z,51.216022
2022-10-05T07:36:34.361Z,51.216152
2022-10-05T07:37:34.343Z,51.216087
2022-10-05T07:38:34.357Z,51.216072
2022-10-05T07:39:58.604Z,51.216080
2022-10-05T07:40:36.324Z,51.216019
2022-10-05T07:41:34.316Z,51.216034
2022-10-05T07:42:36.374Z,51.216011
2022-10-05T07:43:51.445Z,51.216091
2022-10-05T07:44:36.306Z,51.216164
2022-10-05T07:45:34.329Z,51.216194
2022-10-05T07:46:34.284Z,51.216179
2022-10-05T07:47:34.268Z,51.216125
2022-10-05T07:48:34.276Z,51.216141
2022-10-05T07:49:34.277Z,51.216194
2022-10-05T07:50:34.256Z,51.216183
2022-10-05T07:51:34.252Z,51.216202
2022-10-05T07:52:35.040Z,51.216164
2022-10-05T07:53:35.263Z,51.216156
2022-10-05T07:54:34.245Z,51.216198
2022-10-05T07:55:34.233Z,51.216110
2022-10-05T07:56:34.221Z,51.216141
2022-10-05T07:57:34.212Z,51.216106
2022-10-05T07:58:34.212Z,51.215996
2022-10-05T07:59:34.408Z,51.216068
2022-10-05T08:00:34.190Z,51.216213
2022-10-05T08:01:34.245Z,51.216152
2022-10-05T08:02:34.393Z,51.216118
2022-10-05T08:03:34.177Z,51.216076
2022-10-05T08:04:38.105Z,51.215935
2022-10-05T08:05:35.156Z,51.215912
2022-10-05T08:06:34.164Z,51.216061
2022-10-05T08:07:34.149Z,51.216015
2022-10-05T08:08:34.151Z,51.215992
2022-10-05T08:09:34.180Z,51.216042
2022-10-05T08:10:34.128Z,51.216118
2022-10-05T08:11:34.120Z,51.216072
2022-10-05T08:12:34.148Z,51.216076
2022-10-05T08:13:34.096Z,51.216000
2022-10-05T08:14:34.131Z,51.216030
2022-10-05T08:15:34.186Z,51.216167
2022-10-05T08:16:34.101Z,51.216187
2022-10-05T08:17:34.080Z,51.216099
2022-10-05T08:18:34.112Z,51.216122
2022-10-05T08:19:34.195Z,51.216129
2022-10-05T08:20:34.060Z,51.216122
2022-10-05T08:21:34.077Z,51.216068
2022-10-05T08:22:34.060Z,51.216099
2022-10-05T08:23:34.060Z,51.216087
2022-10-05T08:24:34.076Z,51.216213
2022-10-05T08:25:34.038Z,51.216167
2022-10-05T08:26:34.056Z,51.216232
2022-10-05T08:27:34.044Z,51.216221
2022-10-05T08:28:34.066Z,51.216091
2022-10-05T08:29:34.050Z,51.216030
2022-10-05T08:30:34.040Z,51.215992
2022-10-05T08:31:34.106Z,51.216042
2022-10-05T08:32:33.988Z,51.216118
2022-10-05T08:33:34.024Z,51.216118
2022-10-05T08:34:33.976Z,51.216160
2022-10-05T08:35:33.994Z,51.216190
2022-10-05T08:36:33.967Z,51.216187
2022-10-05T08:37:33.977Z,51.216022
2022-10-05T08:38:33.948Z,51.216038
2022-10-05T08:39:33.942Z,51.215961
2022-10-05T08:40:33.940Z,51.215973
2022-10-05T08:41:33.939Z,51.215984
2022-10-05T08:42:33.937Z,51.215984
2022-10-05T08:43:35.444Z,51.215969
2022-10-05T08:44:34.916Z,51.216110
2022-10-05T08:45:33.907Z,51.215870
2022-10-05T08:46:33.948Z,51.216152
2022-10-05T08:47:34.054Z,51.215992
2022-10-05T08:48:33.893Z,51.216030
2022-10-05T08:49:35.297Z,51.216022
2022-10-05T08:50:34.883Z,51.215969
2022-10-05T08:51:33.867Z,51.216015
2022-10-05T08:52:33.888Z,51.216061
2022-10-05T08:53:33.853Z,51.215996
2022-10-05T08:54:33.843Z,51.216042
2022-10-05T08:55:33.847Z,51.216091
2022-10-05T08:56:33.840Z,51.216167
2022-10-05T08:57:33.847Z,51.216160
2022-10-05T08:58:33.816Z,51.216110
2022-10-05T08:59:33.791Z,51.216114
2022-10-05T09:00:34.825Z,51.216110
2022-10-05T09:01:33.856Z,51.216171
2022-10-05T09:02:34.049Z,51.215988
2022-10-05T09:03:34.664Z,51.216053
2022-10-05T09:04:34.782Z,51.216187
2022-10-05T09:05:33.773Z,51.216267
2022-10-05T09:06:33.769Z,51.216080
2022-10-05T09:07:36.528Z,51.216167
2022-10-05T09:08:33.770Z,51.215977
2022-10-05T09:09:33.751Z,51.216164
2022-10-05T09:10:33.748Z,51.216141
2022-10-05T09:11:33.727Z,51.216351
2022-10-05T09:12:33.754Z,51.216190
2022-10-05T09:13:33.720Z,51.216125
2022-10-05T09:14:33.723Z,51.216259
2022-10-05T09:15:33.748Z,51.216160
2022-10-05T09:16:33.708Z,51.216106
2022-10-05T09:17:38.518Z,51.216022
2022-10-05T09:18:35.687Z,51.216019
2022-10-05T09:19:33.691Z,51.216133
2022-10-05T09:20:33.685Z,51.216202
2022-10-05T09:21:33.669Z,51.216095
2022-10-05T09:22:33.663Z,51.216042
2022-10-05T09:23:33.647Z,51.216099
2022-10-05T09:24:33.647Z,51.216042
2022-10-05T09:25:33.659Z,51.215916
2022-10-05T09:26:33.636Z,51.215885
2022-10-05T09:27:33.615Z,51.216042
2022-10-05T09:28:33.780Z,51.216084
2022-10-05T09:29:33.621Z,51.216000
2022-10-05T09:30:33.603Z,51.216175
2022-10-05T09:31:33.667Z,51.216125
2022-10-05T09:32:33.596Z,51.216049
2022-10-05T09:33:33.572Z,51.216206
2022-10-05T09:34:33.583Z,51.216164
2022-10-05T09:35:33.580Z,51.216110
2022-10-05T09:36:33.567Z,51.216267
2022-10-05T09:37:33.557Z,51.216091
2022-10-05T09:38:33.571Z,51.216125
2022-10-05T09:39:33.535Z,51.216129
2022-10-05T09:40:33.543Z,51.216084
2022-10-05T09:41:33.532Z,51.216091
2022-10-05T09:42:33.527Z,51.216064
2022-10-05T09:43:33.537Z,51.216064
2022-10-05T09:44:33.516Z,51.216007
2022-10-05T09:45:33.495Z,51.216053
2022-10-05T09:46:33.594Z,51.215996
2022-10-05T09:47:33.514Z,51.216064
2022-10-05T09:48:33.491Z,51.215881
2022-10-05T09:49:33.479Z,51.215889
2022-10-05T09:50:33.480Z,51.215832
2022-10-05T09:51:33.456Z,51.215927
2022-10-05T09:52:33.465Z,51.215939
2022-10-05T09:53:33.480Z,51.215912
2022-10-05T09:54:33.444Z,51.216057
2022-10-05T09:55:33.436Z,51.216057
2022-10-05T09:56:33.451Z,51.216015
2022-10-05T09:57:33.433Z,51.216072
2022-10-05T09:58:33.450Z,51.216084
2022-10-05T09:59:33.412Z,51.216095
2022-10-05T10:00:33.404Z,51.216106
2022-10-05T10:01:34.446Z,51.216091
2022-10-05T10:02:34.493Z,51.216152
2022-10-05T10:03:33.554Z,51.216225
2022-10-05T10:04:33.383Z,51.216133
2022-10-05T10:05:33.375Z,51.216106
2022-10-05T10:06:33.371Z,51.216091
2022-10-05T10:07:33.367Z,51.216106
2022-10-05T10:08:33.372Z,51.216194
2022-10-05T10:09:37.910Z,51.216133
2022-10-05T10:10:35.355Z,51.216061
2022-10-05T10:11:33.336Z,51.216145
2022-10-05T10:12:33.331Z,51.216053
2022-10-05T10:13:33.329Z,51.216007
2022-10-05T10:14:33.319Z,51.215862
2022-10-05T10:15:33.407Z,51.215958
2022-10-05T10:16:33.291Z,51.216068
2022-10-05T10:17:33.294Z,51.215984
2022-10-05T10:18:33.304Z,51.216084
2022-10-05T10:19:33.290Z,51.216072
2022-10-05T10:20:33.275Z,51.216076
2022-10-05T10:21:33.267Z,51.216057
2022-10-05T10:22:33.255Z,51.216007
2022-10-05T10:23:33.255Z,51.216042
2022-10-05T10:24:33.260Z,51.216038
2022-10-05T10:25:33.235Z,51.216087
2022-10-05T10:26:33.235Z,51.216080
2022-10-05T10:27:33.227Z,51.216110
2022-10-05T10:28:33.271Z,51.216064
2022-10-05T10:29:33.221Z,51.216114
2022-10-05T10:30:35.776Z,51.216187
2022-10-05T10:31:33.196Z,51.216221
2022-10-05T10:32:33.289Z,51.216232
2022-10-05T10:33:33.179Z,51.216000
2022-10-05T10:34:33.187Z,51.216202
2022-10-05T10:35:33.191Z,51.216022
2022-10-05T10:36:33.172Z,51.216118
2022-10-05T10:37:33.152Z,51.216076
2022-10-05T10:38:33.148Z,51.216061
2022-10-05T10:39:33.170Z,51.216095
2022-10-05T10:40:33.127Z,51.216110
2022-10-05T10:41:33.127Z,51.216125
2022-10-05T10:42:33.116Z,51.216095
2022-10-05T10:43:33.123Z,51.216068
2022-10-05T10:44:33.115Z,51.216141
2022-10-05T10:45:33.104Z,51.216225
2022-10-05T10:46:33.110Z,51.216187
2022-10-05T10:47:33.085Z,51.216156
2022-10-05T10:48:33.073Z,51.216114
2022-10-05T10:49:33.067Z,51.216133
2022-10-05T10:50:33.078Z,51.216141
2022-10-05T10:51:33.056Z,51.216156
2022-10-05T10:52:33.041Z,51.216164
2022-10-05T10:53:33.037Z,51.216091
2022-10-05T10:54:33.037Z,51.216156
2022-10-05T10:55:33.039Z,51.216156
2022-10-05T10:56:33.033Z,51.216148
2022-10-05T10:57:33.017Z,51.216171
2022-10-05T10:58:33.031Z,51.216129
2022-10-05T10:59:33.993Z,51.216049
2022-10-05T11:00:32.994Z,51.216103
2022-10-05T11:01:33.089Z,51.216061
2022-10-05T11:02:33.033Z,51.216095
2022-10-05T11:03:32.976Z,51.216118
2022-10-05T11:04:33.013Z,51.216053
2022-10-05T11:05:32.956Z,51.216038
2022-10-05T11:06:32.987Z,51.216042
2022-10-05T11:07:33.966Z,51.216034
2022-10-05T11:08:32.945Z,51.215973
2022-10-05T11:09:32.938Z,51.216034
2022-10-05T11:10:32.943Z,51.216011
2022-10-05T11:11:32.914Z,51.216034
2022-10-05T11:12:34.710Z,51.216019
2022-10-05T11:13:33.909Z,51.216034
2022-10-05T11:14:32.892Z,51.216042
2022-10-05T11:15:32.953Z,51.216061
2022-10-05T11:16:32.895Z,51.216110
2022-10-05T11:17:32.897Z,51.216095
2022-10-05T11:18:32.890Z,51.216118
2022-10-05T11:19:40.460Z,51.216061
2022-10-05T11:20:34.865Z,51.216122
2022-10-05T11:21:32.857Z,51.216095
2022-10-05T11:22:32.860Z,51.216057
2022-10-05T11:23:37.958Z,51.216091
2022-10-05T11:24:34.844Z,51.216125